Time;durP1;ratioP1;P1;durP2;ratioP2;P2;SDS_P1;SDS_P2;PMS_P1;PMS_P2;Temp;Humidity;BMP_temperature;BMP_pressure;BME280_temperature;BME280_humidity;BME280_pressure;Samples;Min_cycle;Max_cycle;Signal;HPM_P1;HPM_P2
2021/08/03 02:38:10;;;;;;;2.42;2.20;;;;;;;17.04;79.64;95580.00;5267041;22;20714;-91
2021/08/03 03:11:40;;;;;;;2.47;2.28;;;;;;;16.87;81.58;95570.16;4859780;29;20255;-91
2021/08/03 04:23:50;;;;;;;3.22;2.58;;;;;;;16.77;78.74;95563.84;4919851;28;20215;-89
2021/08/03 04:26:20;;;;;;;2.58;2.38;;;;;;;16.81;78.69;95559.81;5073194;28;20796;-88
2021/08/03 04:28:51;;;;;;;2.67;2.47;;;;;;;16.83;78.24;95547.41;5112542;28;20210;-89
2021/08/03 04:31:25;;;;;;;3.15;2.80;;;;;;;16.84;78.50;95554.97;5114569;28;20207;-85
2021/08/03 04:37:24;;;;;;;2.95;2.75;;;;;;;16.94;77.97;95546.66;5041260;28;20399;-86
2021/08/03 05:14:47;;;;;;;2.90;2.70;;;;;;;17.52;78.21;95514.94;4819011;29;20365;-89
2021/08/03 05:18:00;;;;;;;3.33;2.50;;;;;;;17.58;76.59;95509.66;4965387;28;20219;-89
2021/08/03 05:21:14;;;;;;;2.95;2.75;;;;;;;17.56;77.00;95513.47;4979359;28;20503;-89
2021/08/03 05:35:55;;;;;;;5.43;4.60;;;;;;;17.84;77.06;95511.13;5089432;28;20215;-87
2021/08/03 06:04:55;;;;;;;3.33;2.92;;;;;;;18.45;74.35;95524.78;4868335;29;20203;-89
2021/08/03 06:10:31;;;;;;;;;;;;;;;;;;;;;
2021/08/03 06:26:33;;;;;;;2.80;2.60;;;;;;;19.39;71.15;95530.66;5017790;28;20250;-86
2021/08/03 06:32:53;;;;;;;3.53;2.35;;;;;;;19.15;70.89;95525.50;5063859;28;20544;-90
2021/08/03 06:36:00;;;;;;;2.90;2.47;;;;;;;19.26;71.92;95532.50;5045743;28;20308;-88
2021/08/03 06:38:47;;;;;;;3.63;2.78;;;;;;;19.45;70.89;95527.09;5081616;28;20667;-87
2021/08/03 06:51:24;;;;;;;2.88;2.53;;;;;;;19.95;68.50;95519.41;4965314;28;20208;-90
2021/08/03 06:54:13;;;;;;;3.00;2.75;;;;;;;19.99;67.38;95513.47;4977449;28;20202;-87
2021/08/03 06:57:14;;;;;;;3.35;2.65;;;;;;;19.94;68.67;95509.97;5078350;28;20216;-87
2021/08/03 07:13:15;;;;;;;2.30;2.10;;;;;;;19.89;66.92;95512.50;5000813;28;20613;-88
2021/08/03 07:22:14;;;;;;;2.35;2.15;;;;;;;19.98;65.16;95511.09;5036965;28;20209;-89
2021/08/03 07:36:17;;;;;;;;;;;;;;;;;;;;;
2021/08/03 07:43:10;;;;;;;2.03;1.67;;;;;;;20.63;57.35;95502.66;4951603;28;20203;-88
2021/08/03 09:09:51;;;;;;;1.50;1.40;;;;;;;23.11;48.89;95485.75;5054292;28;20244;-87
2021/08/03 09:13:00;;;;;;;2.83;1.50;;;;;;;23.48;48.54;95480.34;5057316;28;20708;-85
2021/08/03 12:51:55;;;;;;;1.88;1.70;;;;;;;25.97;44.72;95326.75;5041525;28;20291;-88
2021/08/03 13:04:32;;;;;;;4.10;1.90;;;;;;;26.13;42.12;95323.69;4988240;28;20205;-88
2021/08/03 15:17:50;;;;;;;2.38;1.50;;;;;;;22.78;54.16;95337.31;4918844;29;20219;-85
2021/08/03 15:20:19;;;;;;;1.77;1.67;;;;;;;22.87;54.17;95333.13;4961469;28;20200;-88
2021/08/03 15:22:45;;;;;;;1.67;1.50;;;;;;;22.91;54.42;95330.75;5023160;28;20210;-85
2021/08/03 15:25:12;;;;;;;1.55;1.45;;;;;;;22.85;52.68;95335.25;5052326;28;20681;-85
2021/08/03 15:27:39;;;;;;;3.53;1.70;;;;;;;22.79;52.94;95336.25;5052428;28;20197;-85
2021/08/03 15:30:09;;;;;;;3.50;1.52;;;;;;;22.77;53.45;95329.66;5052828;28;20197;-84
2021/08/03 15:32:35;;;;;;;2.78;1.48;;;;;;;22.80;52.16;95337.84;5046902;28;20213;-85
2021/08/03 15:35:01;;;;;;;4.05;1.90;;;;;;;22.88;53.58;95345.22;5049849;28;20208;-83
2021/08/03 15:37:28;;;;;;;2.03;1.70;;;;;;;22.92;52.94;95340.22;5045905;28;20228;-84
2021/08/03 15:39:54;;;;;;;2.13;1.80;;;;;;;22.86;52.86;95346.53;5052212;28;20573;-85
2021/08/03 15:42:21;;;;;;;1.85;1.70;;;;;;;22.80;52.47;95353.59;5050486;28;20197;-84
2021/08/03 15:44:47;;;;;;;3.90;2.63;;;;;;;22.75;53.38;95358.78;5050469;28;20272;-83
2021/08/03 15:47:16;;;;;;;4.07;1.90;;;;;;;22.73;53.52;95369.53;5050094;28;20228;-84
2021/08/03 15:49:43;;;;;;;2.15;1.77;;;;;;;22.73;53.51;95384.50;5050258;28;20202;-84
2021/08/03 15:52:10;;;;;;;3.47;2.10;;;;;;;22.67;52.71;95388.97;5066543;28;20205;-85
2021/08/03 15:54:37;;;;;;;1.50;1.40;;;;;;;22.44;52.72;95404.34;5054981;28;20194;-84
2021/08/03 15:57:04;;;;;;;1.85;1.58;;;;;;;22.23;53.04;95403.44;5051099;28;20233;-84
2021/08/03 15:59:30;;;;;;;1.58;1.48;;;;;;;22.18;53.85;95411.28;5050026;28;20194;-84
2021/08/03 16:01:57;;;;;;;1.65;1.50;;;;;;;22.04;54.10;95414.34;5049856;28;20631;-86
2021/08/03 16:04:27;;;;;;;2.92;1.70;;;;;;;21.89;53.68;95429.16;5048086;28;21241;-86
2021/08/03 16:09:46;;;;;;;1.42;1.30;;;;;;;21.49;55.86;95430.38;4974525;28;20671;-87
2021/08/03 16:12:40;;;;;;;1.55;1.40;;;;;;;21.41;57.89;95422.97;5029273;28;20201;-94
2021/08/03 16:15:53;;;;;;;;;;;;;;;;;;;;;
2021/08/03 16:18:47;;;;;;;2.55;1.40;;;;;;;20.99;64.42;95423.56;4954004;28;20220;-91
2021/08/03 16:24:20;;;;;;;1.60;1.50;;;;;;;20.90;64.68;95430.28;4955707;29;20240;-91
2021/08/03 16:26:53;;;;;;;3.25;1.48;;;;;;;20.76;65.18;95423.84;5038276;28;20232;-90
2021/08/03 16:29:54;;;;;;;1.63;1.52;;;;;;;20.75;64.89;95419.63;5034642;28;20217;-89
2021/08/03 16:39:19;;;;;;;1.30;1.20;;;;;;;20.61;64.46;95442.72;4990216;28;20223;-89
2021/08/03 16:41:49;;;;;;;1.40;1.30;;;;;;;20.51;64.36;95442.63;4993091;28;20262;-87
2021/08/03 16:44:20;;;;;;;2.17;1.40;;;;;;;20.47;65.76;95430.25;5031581;28;20225;-90
2021/08/03 16:46:54;;;;;;;1.65;1.30;;;;;;;20.47;64.26;95425.81;5039555;28;20791;-89
2021/08/03 16:49:22;;;;;;;1.42;1.33;;;;;;;20.49;63.12;95428.19;5035387;28;20206;-88
2021/08/03 16:51:49;;;;;;;1.27;1.17;;;;;;;20.24;65.53;95415.53;5035704;28;20274;-90
2021/08/03 16:54:23;;;;;;;1.40;1.30;;;;;;;20.27;64.65;95426.31;5033788;28;20214;-89
2021/08/03 16:56:50;;;;;;;1.40;1.30;;;;;;;20.31;63.84;95419.56;5035717;28;20230;-89
2021/08/03 16:59:20;;;;;;;1.88;1.40;;;;;;;20.37;63.63;95425.69;5035990;28;20755;-89
2021/08/03 17:01:49;;;;;;;1.80;1.65;;;;;;;20.40;63.02;95419.97;5036713;28;20206;-89
2021/08/03 17:04:30;;;;;;;2.00;1.58;;;;;;;20.33;64.55;95416.72;5037074;28;20198;-89
2021/08/03 17:07:04;;;;;;;1.38;1.27;;;;;;;20.32;64.10;95412.53;5035439;28;20314;-88
2021/08/03 17:09:45;;;;;;;1.60;1.50;;;;;;;20.30;64.06;95420.59;5035044;28;20245;-88
2021/08/03 17:12:18;;;;;;;1.67;1.35;;;;;;;20.37;63.77;95425.69;5034728;28;20229;-88
2021/08/03 17:14:51;;;;;;;1.67;1.58;;;;;;;20.33;64.35;95427.19;5034977;28;20202;-89
2021/08/03 17:17:32;;;;;;;1.60;1.50;;;;;;;20.25;64.67;95433.59;5033996;28;20826;-89
2021/08/03 17:20:05;;;;;;;1.55;1.35;;;;;;;20.28;65.10;95435.75;5034595;28;20220;-88
2021/08/03 17:22:34;;;;;;;1.65;1.40;;;;;;;20.24;65.21;95444.28;5034038;28;20197;-90
2021/08/03 17:25:06;;;;;;;1.70;1.60;;;;;;;20.24;65.42;95441.69;5035511;28;20194;-90
2021/08/03 17:27:32;;;;;;;1.45;1.35;;;;;;;20.18;65.62;95442.66;5035364;28;20209;-89
2021/08/03 17:30:02;;;;;;;1.50;1.40;;;;;;;20.15;65.08;95450.97;5034324;28;20213;-88
2021/08/03 17:32:31;;;;;;;2.42;1.70;;;;;;;20.16;65.59;95449.94;5033554;28;20285;-87
2021/08/03 17:34:59;;;;;;;1.70;1.60;;;;;;;19.89;67.92;95455.00;5033140;28;20201;-89
2021/08/03 17:41:17;;;;;;;4.80;4.40;;;;;;;19.81;68.93;95458.03;5029562;28;20237;-91
2021/08/03 17:43:54;;;;;;;2.10;2.00;;;;;;;19.82;69.09;95449.94;4969440;28;20789;-87
2021/08/03 17:46:46;;;;;;;1.60;1.50;;;;;;;19.77;69.14;95460.31;5226396;22;20251;-88
2021/08/03 17:52:42;;;;;;;3.85;2.00;;;;;;;19.59;75.21;95450.91;5011323;28;20203;-87
2021/08/03 17:55:18;;;;;;;4.47;2.30;;;;;;;19.82;71.20;95457.00;5049406;28;20255;-87
2021/08/03 17:58:13;;;;;;;2.58;1.80;;;;;;;20.05;70.25;95459.44;5028901;28;20209;-88
2021/08/03 18:00:49;;;;;;;1.75;1.63;;;;;;;20.01;69.15;95460.97;5029587;28;20202;-87
2021/08/03 18:09:38;;;;;;;2.55;1.70;;;;;;;19.83;67.25;95456.75;5034064;28;20228;-90
2021/08/03 18:19:35;;;;;;;1.65;1.48;;;;;;;19.34;68.55;95442.59;4954248;28;20215;-89
2021/08/03 18:22:38;;;;;;;1.55;1.45;;;;;;;19.28;69.36;95438.28;5007091;28;20296;-89
2021/08/03 18:32:57;;;;;;;2.15;1.95;;;;;;;18.98;71.17;95443.75;5006948;28;20219;-89
2021/08/03 18:39:37;;;;;;;;;;;;;;;;;;;;;
2021/08/03 18:45:58;;;;;;;2.10;1.40;;;;;;;18.80;72.44;95449.94;5006258;28;20297;-89
2021/08/03 18:55:01;;;;;;;;;;;;;;;;;;;;;
2021/08/03 18:58:04;;;;;;;1.92;1.50;;;;;;;18.58;74.22;95457.53;5069092;28;20691;-89
2021/08/03 19:00:55;;;;;;;;;;;;;;;;;;;;;
2021/08/03 19:07:01;;;;;;;1.63;1.52;;;;;;;18.53;75.54;95470.47;5047107;28;20232;-89
2021/08/03 19:09:55;;;;;;;1.58;1.48;;;;;;;18.56;75.47;95479.66;5054586;28;20224;-90
2021/08/03 19:12:48;;;;;;;2.42;1.60;;;;;;;18.53;76.02;95493.13;5049932;28;20225;-89
2021/08/03 19:15:37;;;;;;;1.90;1.40;;;;;;;18.54;75.44;95492.13;5049375;28;20197;-89
2021/08/03 19:18:18;;;;;;;1.70;1.60;;;;;;;18.54;75.57;95494.72;5049026;28;20241;-89
2021/08/03 19:21:10;;;;;;;1.52;1.42;;;;;;;18.61;74.91;95503.25;5049261;28;20205;-88
2021/08/03 19:24:08;;;;;;;1.95;1.65;;;;;;;18.52;75.60;95505.38;5047997;28;20210;-88
2021/08/03 19:30:06;;;;;;;1.85;1.50;;;;;;;18.61;75.77;95516.31;5006709;28;20679;-89
2021/08/03 19:32:55;;;;;;;1.77;1.67;;;;;;;18.62;75.83;95523.91;5006801;28;20199;-89
2021/08/03 19:35:33;;;;;;;1.60;1.50;;;;;;;18.71;75.06;95516.50;5049123;28;20599;-90
2021/08/03 19:38:22;;;;;;;2.35;1.80;;;;;;;18.76;74.58;95515.81;5057799;28;20266;-89
2021/08/03 19:41:13;;;;;;;8.98;8.15;;;;;;;18.72;74.43;95520.69;5068741;28;20286;-89
2021/08/03 19:47:16;;;;;;;1.90;1.70;;;;;;;18.65;74.19;95512.22;5066972;28;20964;-89
2021/08/03 19:50:09;;;;;;;1.92;1.75;;;;;;;18.71;73.80;95508.69;5068583;28;20220;-89
2021/08/03 19:53:01;;;;;;;2.10;1.67;;;;;;;18.77;73.37;95509.59;5070994;28;20202;-90
2021/08/03 19:55:51;;;;;;;1.80;1.58;;;;;;;18.85;72.64;95517.06;5072346;28;20196;-89
2021/08/03 20:02:00;;;;;;;2.22;1.50;;;;;;;18.88;72.61;95524.41;5072383;28;20212;-89
2021/08/03 20:07:51;;;;;;;;;;;;;;;;;;;;;
2021/08/03 20:10:28;;;;;;;1.58;1.48;;;;;;;18.79;71.42;95531.81;5073102;28;20192;-88
2021/08/03 20:12:59;;;;;;;2.10;1.70;;;;;;;18.85;71.43;95543.97;5072631;28;20211;-89
2021/08/03 20:16:05;;;;;;;1.50;1.40;;;;;;;18.82;71.02;95533.97;5072779;28;20200;-90
2021/08/03 20:18:39;;;;;;;1.70;1.60;;;;;;;18.65;71.15;95537.50;5072175;28;20248;-89
2021/08/03 20:21:17;;;;;;;1.40;1.30;;;;;;;18.70;71.19;95532.38;5072725;28;20254;-89
2021/08/03 20:23:47;;;;;;;1.98;1.77;;;;;;;18.68;70.85;95519.56;5072598;28;20193;-89
2021/08/03 20:29:49;;;;;;;1.63;1.52;;;;;;;18.66;70.25;95536.50;5071391;28;20201;-89
2021/08/03 20:35:57;;;;;;;2.00;1.60;;;;;;;18.65;70.15;95540.13;5067672;28;20212;-89
2021/08/03 20:41:22;;;;;;;2.83;1.92;;;;;;;18.74;70.36;95543.94;5050587;28;20202;-89
2021/08/03 20:47:32;;;;;;;1.50;1.40;;;;;;;18.70;70.01;95543.59;4971180;28;20276;-89
2021/08/03 20:50:07;;;;;;;1.60;1.50;;;;;;;18.76;69.42;95547.13;5069904;28;20209;-89
2021/08/03 20:52:48;;;;;;;1.58;1.48;;;;;;;18.80;69.75;95538.63;5072204;28;20231;-89
2021/08/03 20:55:32;;;;;;;1.50;1.40;;;;;;;18.77;69.89;95546.09;5071629;28;20204;-88
2021/08/03 20:58:22;;;;;;;;;;;;;;;;;;;;;
2021/08/03 21:01:01;;;;;;;1.75;1.63;;;;;;;18.82;69.44;95541.00;5072222;28;20204;-89
2021/08/03 21:04:01;;;;;;;1.52;1.42;;;;;;;18.86;69.30;95550.72;5071675;28;20196;-89
2021/08/03 21:06:50;;;;;;;2.20;1.55;;;;;;;18.90;69.47;95557.09;5063250;28;20316;-89
2021/08/03 21:09:18;;;;;;;1.65;1.55;;;;;;;18.79;70.18;95547.47;5072189;28;20279;-90
2021/08/03 21:12:12;;;;;;;2.33;1.60;;;;;;;18.81;69.56;95550.66;5071853;28;20209;-89
2021/08/03 21:14:48;;;;;;;1.50;1.40;;;;;;;18.84;69.21;95544.97;5071427;28;20615;-89
2021/08/03 21:17:41;;;;;;;;;;;;;;;;;;;;;
2021/08/03 21:26:28;;;;;;;1.67;1.58;;;;;;;18.72;68.09;95553.81;5104967;22;20635;-90
2021/08/03 21:29:10;;;;;;;2.00;1.63;;;;;;;18.67;68.17;95556.31;5049837;28;20205;-89
2021/08/03 21:31:41;;;;;;;2.95;1.70;;;;;;;18.72;68.49;95559.03;5051740;28;20209;-88
2021/08/03 21:34:26;;;;;;;2.15;1.65;;;;;;;18.70;67.48;95551.44;5051585;28;20211;-89
2021/08/03 21:36:56;;;;;;;2.10;1.45;;;;;;;18.68;67.63;95560.50;5037103;28;20593;-89
2021/08/03 21:39:26;;;;;;;1.70;1.60;;;;;;;18.71;67.63;95552.22;5031457;28;20312;-89
2021/08/03 21:42:06;;;;;;;1.73;1.63;;;;;;;18.71;67.38;95555.63;5031492;28;20202;-88
2021/08/03 21:44:36;;;;;;;1.80;1.70;;;;;;;18.77;68.08;95551.31;5031824;28;20663;-89
2021/08/03 21:47:07;;;;;;;1.60;1.50;;;;;;;18.76;67.65;95553.13;5032012;28;20350;-89
2021/08/03 21:49:39;;;;;;;1.92;1.77;;;;;;;18.77;67.45;95551.31;5031259;28;20225;-88
2021/08/03 21:52:07;;;;;;;1.50;1.40;;;;;;;18.72;68.21;95541.56;5031155;28;20631;-88
2021/08/03 21:54:36;;;;;;;2.10;1.90;;;;;;;18.74;67.53;95547.34;5050436;28;20201;-88
2021/08/03 21:57:13;;;;;;;1.70;1.60;;;;;;;18.78;67.26;95556.31;5050410;28;20218;-89
2021/08/03 22:02:36;;;;;;;2.08;1.80;;;;;;;18.71;68.02;95554.84;5048315;28;20245;-89
2021/08/03 22:05:18;;;;;;;1.80;1.55;;;;;;;18.69;68.61;95556.88;5052187;28;20232;-89
